sensor_id;sensor_type;location;lat;lon;timestamp;temperature;humidity
18950;DHT22;9608;49.288;8.130;2022-11-02T00:02:17;9.40;99.90
18950;DHT22;9608;49.288;8.130;2022-11-02T00:04:44;9.30;99.90
18950;DHT22;9608;49.288;8.130;2022-11-02T00:07:11;9.40;99.90
18950;DHT22;9608;49.288;8.130;2022-11-02T00:09:38;9.30;99.90
18950;DHT22;9608;49.288;8.130;2022-11-02T00:12:06;9.20;99.90
18950;DHT22;9608;49.288;8.130;2022-11-02T00:14:33;9.20;99.90
18950;DHT22;9608;49.288;8.130;2022-11-02T00:17:00;9.20;99.90
18950;DHT22;9608;49.288;8.130;2022-11-02T00:19:28;9.20;99.90
18950;DHT22;9608;49.288;8.130;2022-11-02T00:21:54;9.10;99.90
18950;DHT22;9608;49.288;8.130;2022-11-02T00:24:23;9.00;99.90
18950;DHT22;9608;49.288;8.130;2022-11-02T00:26:50;9.10;99.90
18950;DHT22;9608;49.288;8.130;2022-11-02T00:29:18;9.00;99.90
18950;DHT22;9608;49.288;8.130;2022-11-02T00:31:45;8.90;99.90
18950;DHT22;9608;49.288;8.130;2022-11-02T00:34:11;8.90;99.90
18950;DHT22;9608;49.288;8.130;2022-11-02T00:36:38;9.00;99.90
18950;DHT22;9608;49.288;8.130;2022-11-02T00:39:05;8.80;99.90
18950;DHT22;9608;49.288;8.130;2022-11-02T00:41:32;8.80;99.90
18950;DHT22;9608;49.288;8.130;2022-11-02T00:43:59;8.80;99.90
18950;DHT22;9608;49.288;8.130;2022-11-02T00:46:27;8.70;99.90
18950;DHT22;9608;49.288;8.130;2022-11-02T00:48:53;8.70;99.90
18950;DHT22;9608;49.288;8.130;2022-11-02T00:51:20;8.60;99.90
18950;DHT22;9608;49.288;8.130;2022-11-02T00:53:46;8.50;99.90
18950;DHT22;9608;49.288;8.130;2022-11-02T00:56:13;8.50;99.90
18950;DHT22;9608;49.288;8.130;2022-11-02T00:58:40;8.60;99.90
18950;DHT22;9608;49.288;8.130;2022-11-02T01:01:07;8.70;99.90
18950;DHT22;9608;49.288;8.130;2022-11-02T01:03:35;8.60;99.90
18950;DHT22;9608;49.288;8.130;2022-11-02T01:06:07;8.70;99.90
18950;DHT22;9608;49.288;8.130;2022-11-02T01:08:34;8.60;99.90
18950;DHT22;9608;49.288;8.130;2022-11-02T01:11:08;8.60;99.90
18950;DHT22;9608;49.288;8.130;2022-11-02T01:13:35;8.60;99.90
18950;DHT22;9608;49.288;8.130;2022-11-02T01:16:02;8.70;99.90
18950;DHT22;9608;49.288;8.130;2022-11-02T01:18:29;8.70;99.90
18950;DHT22;9608;49.288;8.130;2022-11-02T01:20:57;8.60;99.90
18950;DHT22;9608;49.288;8.130;2022-11-02T01:23:24;8.70;99.90
18950;DHT22;9608;49.288;8.130;2022-11-02T01:25:51;8.80;99.90
18950;DHT22;9608;49.288;8.130;2022-11-02T01:28:18;8.80;99.90
18950;DHT22;9608;49.288;8.130;2022-11-02T01:30:46;8.70;99.90
18950;DHT22;9608;49.288;8.130;2022-11-02T01:33:13;8.70;99.90
18950;DHT22;9608;49.288;8.130;2022-11-02T01:35:39;8.60;99.90
18950;DHT22;9608;49.288;8.130;2022-11-02T01:38:08;8.70;99.90
18950;DHT22;9608;49.288;8.130;2022-11-02T01:40:35;8.70;99.90
18950;DHT22;9608;49.288;8.130;2022-11-02T01:43:18;8.70;99.90
18950;DHT22;9608;49.288;8.130;2022-11-02T01:45:45;8.80;99.90
18950;DHT22;9608;49.288;8.130;2022-11-02T01:48:12;8.70;99.90
18950;DHT22;9608;49.288;8.130;2022-11-02T01:50:40;8.80;99.90
18950;DHT22;9608;49.288;8.130;2022-11-02T01:53:08;8.70;99.90
18950;DHT22;9608;49.288;8.130;2022-11-02T01:55:35;8.70;99.90
18950;DHT22;9608;49.288;8.130;2022-11-02T01:58:05;8.80;99.90
18950;DHT22;9608;49.288;8.130;2022-11-02T02:00:34;8.80;99.90
18950;DHT22;9608;49.288;8.130;2022-11-02T02:03:05;8.80;99.90
18950;DHT22;9608;49.288;8.130;2022-11-02T02:05:34;8.80;99.90
18950;DHT22;9608;49.288;8.130;2022-11-02T02:08:02;8.80;99.90
18950;DHT22;9608;49.288;8.130;2022-11-02T02:10:30;8.80;99.90
18950;DHT22;9608;49.288;8.130;2022-11-02T02:12:56;8.80;99.90
18950;DHT22;9608;49.288;8.130;2022-11-02T02:15:29;8.70;99.90
18950;DHT22;9608;49.288;8.130;2022-11-02T02:18:05;8.70;99.90
18950;DHT22;9608;49.288;8.130;2022-11-02T02:20:45;8.70;99.90
18950;DHT22;9608;49.288;8.130;2022-11-02T02:23:31;8.60;99.90
18950;DHT22;9608;49.288;8.130;2022-11-02T02:26:30;8.60;99.90
18950;DHT22;9608;49.288;8.130;2022-11-02T02:29:06;8.70;99.90
18950;DHT22;9608;49.288;8.130;2022-11-02T02:31:37;8.70;99.90
18950;DHT22;9608;49.288;8.130;2022-11-02T02:34:09;8.70;99.90
18950;DHT22;9608;49.288;8.130;2022-11-02T02:36:44;8.60;99.90
18950;DHT22;9608;49.288;8.130;2022-11-02T02:39:16;8.60;99.90
18950;DHT22;9608;49.288;8.130;2022-11-02T02:41:47;8.60;99.90
18950;DHT22;9608;49.288;8.130;2022-11-02T02:44:21;8.50;99.90
18950;DHT22;9608;49.288;8.130;2022-11-02T02:46:52;8.40;99.90
18950;DHT22;9608;49.288;8.130;2022-11-02T02:49:28;8.40;99.90
18950;DHT22;9608;49.288;8.130;2022-11-02T02:51:58;8.30;99.90
18950;DHT22;9608;49.288;8.130;2022-11-02T02:54:30;8.30;99.90
18950;DHT22;9608;49.288;8.130;2022-11-02T02:57:02;8.30;99.90
18950;DHT22;9608;49.288;8.130;2022-11-02T02:59:37;8.40;99.90
18950;DHT22;9608;49.288;8.130;2022-11-02T03:02:04;8.30;99.90
18950;DHT22;9608;49.288;8.130;2022-11-02T03:04:32;8.40;99.90
18950;DHT22;9608;49.288;8.130;2022-11-02T03:07:00;8.40;99.90
18950;DHT22;9608;49.288;8.130;2022-11-02T03:09:32;8.30;99.90
18950;DHT22;9608;49.288;8.130;2022-11-02T03:12:11;8.20;99.90
18950;DHT22;9608;49.288;8.130;2022-11-02T03:14:53;8.20;99.90
18950;DHT22;9608;49.288;8.130;2022-11-02T03:17:31;8.20;99.90
18950;DHT22;9608;49.288;8.130;2022-11-02T03:20:03;8.20;99.90
18950;DHT22;9608;49.288;8.130;2022-11-02T03:22:41;8.30;99.90
18950;DHT22;9608;49.288;8.130;2022-11-02T03:25:13;8.30;99.90
18950;DHT22;9608;49.288;8.130;2022-11-02T03:27:49;8.40;99.90
18950;DHT22;9608;49.288;8.130;2022-11-02T03:30:18;8.60;99.90
18950;DHT22;9608;49.288;8.130;2022-11-02T03:32:52;8.90;99.90
18950;DHT22;9608;49.288;8.130;2022-11-02T03:35:24;9.50;99.90
18950;DHT22;9608;49.288;8.130;2022-11-02T03:37:58;10.00;99.90
18950;DHT22;9608;49.288;8.130;2022-11-02T03:40:28;10.40;99.90
18950;DHT22;9608;49.288;8.130;2022-11-02T03:42:58;10.80;99.90
18950;DHT22;9608;49.288;8.130;2022-11-02T03:45:30;11.10;99.90
18950;DHT22;9608;49.288;8.130;2022-11-02T03:48:04;11.40;99.90
18950;DHT22;9608;49.288;8.130;2022-11-02T03:50:32;11.60;99.90
18950;DHT22;9608;49.288;8.130;2022-11-02T03:53:04;11.70;99.90
18950;DHT22;9608;49.288;8.130;2022-11-02T03:55:34;11.90;99.90
18950;DHT22;9608;49.288;8.130;2022-11-02T03:58:02;12.10;99.90
18950;DHT22;9608;49.288;8.130;2022-11-02T04:00:32;12.10;99.90
18950;DHT22;9608;49.288;8.130;2022-11-02T04:03:01;12.10;99.90
18950;DHT22;9608;49.288;8.130;2022-11-02T04:05:29;12.10;99.90
18950;DHT22;9608;49.288;8.130;2022-11-02T04:07:56;12.10;99.90
18950;DHT22;9608;49.288;8.130;2022-11-02T04:10:41;12.20;99.90
18950;DHT22;9608;49.288;8.130;2022-11-02T04:13:21;12.30;99.90
18950;DHT22;9608;49.288;8.130;2022-11-02T04:16:07;12.40;99.90
18950;DHT22;9608;49.288;8.130;2022-11-02T04:18:34;12.50;99.90
18950;DHT22;9608;49.288;8.130;2022-11-02T04:21:18;12.50;99.90
18950;DHT22;9608;49.288;8.130;2022-11-02T04:23:44;12.60;99.90
18950;DHT22;9608;49.288;8.130;2022-11-02T04:26:29;12.60;99.90
18950;DHT22;9608;49.288;8.130;2022-11-02T04:28:55;12.70;99.90
18950;DHT22;9608;49.288;8.130;2022-11-02T04:31:23;12.80;99.90
18950;DHT22;9608;49.288;8.130;2022-11-02T04:33:50;12.90;99.90
18950;DHT22;9608;49.288;8.130;2022-11-02T04:36:15;12.90;99.90
18950;DHT22;9608;49.288;8.130;2022-11-02T04:38:42;12.90;99.90
18950;DHT22;9608;49.288;8.130;2022-11-02T04:41:10;12.80;99.90
18950;DHT22;9608;49.288;8.130;2022-11-02T04:43:55;12.70;99.90
18950;DHT22;9608;49.288;8.130;2022-11-02T04:46:25;12.60;99.90
18950;DHT22;9608;49.288;8.130;2022-11-02T04:48:52;12.50;99.90
18950;DHT22;9608;49.288;8.130;2022-11-02T04:51:19;12.40;99.90
18950;DHT22;9608;49.288;8.130;2022-11-02T04:53:46;12.30;99.90
18950;DHT22;9608;49.288;8.130;2022-11-02T04:56:12;12.30;99.90
18950;DHT22;9608;49.288;8.130;2022-11-02T04:58:39;12.30;99.90
18950;DHT22;9608;49.288;8.130;2022-11-02T05:01:07;12.30;99.90
18950;DHT22;9608;49.288;8.130;2022-11-02T05:03:36;12.30;99.90
18950;DHT22;9608;49.288;8.130;2022-11-02T05:06:03;12.30;99.90
18950;DHT22;9608;49.288;8.130;2022-11-02T05:08:30;12.20;99.90
18950;DHT22;9608;49.288;8.130;2022-11-02T05:10:57;12.10;99.90
18950;DHT22;9608;49.288;8.130;2022-11-02T05:13:25;12.00;99.90
18950;DHT22;9608;49.288;8.130;2022-11-02T05:15:55;12.00;99.90
18950;DHT22;9608;49.288;8.130;2022-11-02T05:18:21;12.00;99.90
18950;DHT22;9608;49.288;8.130;2022-11-02T05:20:50;11.90;99.90
18950;DHT22;9608;49.288;8.130;2022-11-02T05:23:18;11.90;99.90
18950;DHT22;9608;49.288;8.130;2022-11-02T05:25:51;11.90;99.90
18950;DHT22;9608;49.288;8.130;2022-11-02T05:28:18;12.00;99.90
18950;DHT22;9608;49.288;8.130;2022-11-02T05:30:45;12.00;99.90
18950;DHT22;9608;49.288;8.130;2022-11-02T05:33:12;12.00;99.90
18950;DHT22;9608;49.288;8.130;2022-11-02T05:35:39;12.00;99.90
18950;DHT22;9608;49.288;8.130;2022-11-02T05:38:07;12.00;99.90
18950;DHT22;9608;49.288;8.130;2022-11-02T05:40:34;12.00;99.90
18950;DHT22;9608;49.288;8.130;2022-11-02T05:43:03;12.10;99.90
18950;DHT22;9608;49.288;8.130;2022-11-02T05:45:30;12.20;99.90
18950;DHT22;9608;49.288;8.130;2022-11-02T05:47:58;12.10;99.90
18950;DHT22;9608;49.288;8.130;2022-11-02T05:50:25;12.10;99.90
18950;DHT22;9608;49.288;8.130;2022-11-02T05:52:52;12.10;99.90
18950;DHT22;9608;49.288;8.130;2022-11-02T05:55:20;12.10;99.90
18950;DHT22;9608;49.288;8.130;2022-11-02T05:57:50;12.10;99.90
18950;DHT22;9608;49.288;8.130;2022-11-02T06:00:17;12.10;99.90
18950;DHT22;9608;49.288;8.130;2022-11-02T06:02:44;12.10;99.90
18950;DHT22;9608;49.288;8.130;2022-11-02T06:05:10;12.00;99.90
18950;DHT22;9608;49.288;8.130;2022-11-02T06:07:37;12.00;99.90
18950;DHT22;9608;49.288;8.130;2022-11-02T06:10:05;12.00;99.90
18950;DHT22;9608;49.288;8.130;2022-11-02T06:12:33;12.10;99.90
18950;DHT22;9608;49.288;8.130;2022-11-02T06:15:00;12.10;99.90
18950;DHT22;9608;49.288;8.130;2022-11-02T06:17:27;12.10;99.90
18950;DHT22;9608;49.288;8.130;2022-11-02T06:19:53;12.20;99.90
18950;DHT22;9608;49.288;8.130;2022-11-02T06:22:20;12.20;99.90
18950;DHT22;9608;49.288;8.130;2022-11-02T06:24:47;12.20;99.90
18950;DHT22;9608;49.288;8.130;2022-11-02T06:27:13;12.20;99.90
18950;DHT22;9608;49.288;8.130;2022-11-02T06:29:42;12.20;99.90
18950;DHT22;9608;49.288;8.130;2022-11-02T06:32:08;12.30;99.90
18950;DHT22;9608;49.288;8.130;2022-11-02T06:34:35;12.20;99.90
18950;DHT22;9608;49.288;8.130;2022-11-02T06:37:02;12.30;99.90
18950;DHT22;9608;49.288;8.130;2022-11-02T06:39:29;12.30;99.90
18950;DHT22;9608;49.288;8.130;2022-11-02T06:41:55;12.40;99.90
18950;DHT22;9608;49.288;8.130;2022-11-02T06:44:22;12.30;99.90
18950;DHT22;9608;49.288;8.130;2022-11-02T06:46:50;12.30;99.90
18950;DHT22;9608;49.288;8.130;2022-11-02T06:49:16;12.30;99.90
18950;DHT22;9608;49.288;8.130;2022-11-02T06:51:43;12.30;99.90
18950;DHT22;9608;49.288;8.130;2022-11-02T06:54:10;12.30;99.90
18950;DHT22;9608;49.288;8.130;2022-11-02T06:56:37;12.30;99.90
18950;DHT22;9608;49.288;8.130;2022-11-02T06:59:03;12.30;99.90
18950;DHT22;9608;49.288;8.130;2022-11-02T07:01:30;12.30;99.90
18950;DHT22;9608;49.288;8.130;2022-11-02T07:03:58;12.30;99.90
18950;DHT22;9608;49.288;8.130;2022-11-02T07:06:25;12.30;99.90
18950;DHT22;9608;49.288;8.130;2022-11-02T07:08:52;12.40;99.90
18950;DHT22;9608;49.288;8.130;2022-11-02T07:11:20;12.40;99.90
18950;DHT22;9608;49.288;8.130;2022-11-02T07:13:47;12.40;99.90
18950;DHT22;9608;49.288;8.130;2022-11-02T07:16:14;12.40;99.90
18950;DHT22;9608;49.288;8.130;2022-11-02T07:18:53;12.50;99.90
18950;DHT22;9608;49.288;8.130;2022-11-02T07:21:21;12.50;99.90
18950;DHT22;9608;49.288;8.130;2022-11-02T07:23:49;12.50;99.90
18950;DHT22;9608;49.288;8.130;2022-11-02T07:26:16;12.50;99.90
18950;DHT22;9608;49.288;8.130;2022-11-02T07:28:57;12.50;99.90
18950;DHT22;9608;49.288;8.130;2022-11-02T07:31:35;12.50;99.90
18950;DHT22;9608;49.288;8.130;2022-11-02T07:34:02;12.50;99.90
18950;DHT22;9608;49.288;8.130;2022-11-02T07:36:31;12.50;99.90
18950;DHT22;9608;49.288;8.130;2022-11-02T07:39:11;12.50;99.90
18950;DHT22;9608;49.288;8.130;2022-11-02T07:41:38;12.40;99.90
18950;DHT22;9608;49.288;8.130;2022-11-02T07:44:18;12.50;99.90
18950;DHT22;9608;49.288;8.130;2022-11-02T07:46:45;12.60;99.90
18950;DHT22;9608;49.288;8.130;2022-11-02T07:49:12;12.70;99.90
18950;DHT22;9608;49.288;8.130;2022-11-02T07:51:55;12.70;99.90
18950;DHT22;9608;49.288;8.130;2022-11-02T07:54:22;12.70;99.90
18950;DHT22;9608;49.288;8.130;2022-11-02T07:57:00;12.70;99.90
18950;DHT22;9608;49.288;8.130;2022-11-02T07:59:28;12.80;99.90
18950;DHT22;9608;49.288;8.130;2022-11-02T08:01:55;12.80;99.90
18950;DHT22;9608;49.288;8.130;2022-11-02T08:04:23;12.80;99.90
18950;DHT22;9608;49.288;8.130;2022-11-02T08:06:50;12.90;99.90
18950;DHT22;9608;49.288;8.130;2022-11-02T08:09:19;12.90;99.90
18950;DHT22;9608;49.288;8.130;2022-11-02T08:11:47;12.90;99.90
18950;DHT22;9608;49.288;8.130;2022-11-02T08:14:28;13.00;99.90
18950;DHT22;9608;49.288;8.130;2022-11-02T08:16:55;13.00;99.90
18950;DHT22;9608;49.288;8.130;2022-11-02T08:19:22;13.20;99.90
18950;DHT22;9608;49.288;8.130;2022-11-02T08:22:03;13.40;99.90
18950;DHT22;9608;49.288;8.130;2022-11-02T08:24:43;13.30;99.90
18950;DHT22;9608;49.288;8.130;2022-11-02T08:27:10;13.30;99.90
18950;DHT22;9608;49.288;8.130;2022-11-02T08:29:48;13.30;99.90
18950;DHT22;9608;49.288;8.130;2022-11-02T08:32:15;13.30;99.90
18950;DHT22;9608;49.288;8.130;2022-11-02T08:34:53;13.20;99.90
18950;DHT22;9608;49.288;8.130;2022-11-02T08:37:21;13.20;99.90
18950;DHT22;9608;49.288;8.130;2022-11-02T08:39:50;13.10;99.90
18950;DHT22;9608;49.288;8.130;2022-11-02T08:42:30;13.30;99.90
18950;DHT22;9608;49.288;8.130;2022-11-02T08:44:57;13.30;99.90
18950;DHT22;9608;49.288;8.130;2022-11-02T08:47:39;13.20;99.90
18950;DHT22;9608;49.288;8.130;2022-11-02T08:50:07;13.20;99.90
18950;DHT22;9608;49.288;8.130;2022-11-02T08:52:34;13.20;99.90
18950;DHT22;9608;49.288;8.130;2022-11-02T08:55:04;13.20;99.90
18950;DHT22;9608;49.288;8.130;2022-11-02T08:57:31;13.30;99.90
18950;DHT22;9608;49.288;8.130;2022-11-02T08:59:58;13.30;99.90
18950;DHT22;9608;49.288;8.130;2022-11-02T09:02:33;13.40;99.90
18950;DHT22;9608;49.288;8.130;2022-11-02T09:05:06;13.50;99.90
18950;DHT22;9608;49.288;8.130;2022-11-02T09:07:33;13.70;99.90
18950;DHT22;9608;49.288;8.130;2022-11-02T09:10:01;13.80;99.90
18950;DHT22;9608;49.288;8.130;2022-11-02T09:12:41;14.00;99.90
18950;DHT22;9608;49.288;8.130;2022-11-02T09:15:09;14.10;99.90
18950;DHT22;9608;49.288;8.130;2022-11-02T09:17:36;13.90;99.90
18950;DHT22;9608;49.288;8.130;2022-11-02T09:20:04;13.90;99.90
18950;DHT22;9608;49.288;8.130;2022-11-02T09:22:31;14.00;99.90
18950;DHT22;9608;49.288;8.130;2022-11-02T09:24:58;14.10;99.90
18950;DHT22;9608;49.288;8.130;2022-11-02T09:27:41;14.20;99.90
18950;DHT22;9608;49.288;8.130;2022-11-02T09:30:19;14.30;99.90
18950;DHT22;9608;49.288;8.130;2022-11-02T09:32:53;14.40;99.90
18950;DHT22;9608;49.288;8.130;2022-11-02T09:35:20;14.70;99.90
18950;DHT22;9608;49.288;8.130;2022-11-02T09:37:47;14.80;99.90
18950;DHT22;9608;49.288;8.130;2022-11-02T09:40:19;14.90;99.90
18950;DHT22;9608;49.288;8.130;2022-11-02T09:43:07;15.00;99.90
18950;DHT22;9608;49.288;8.130;2022-11-02T09:45:52;15.10;99.90
18950;DHT22;9608;49.288;8.130;2022-11-02T09:48:24;15.20;99.90
18950;DHT22;9608;49.288;8.130;2022-11-02T09:50:57;15.30;99.90
18950;DHT22;9608;49.288;8.130;2022-11-02T09:53:31;15.20;99.90
18950;DHT22;9608;49.288;8.130;2022-11-02T09:56:00;15.00;99.90
18950;DHT22;9608;49.288;8.130;2022-11-02T09:58:34;15.00;99.90
18950;DHT22;9608;49.288;8.130;2022-11-02T10:01:12;14.90;99.90
18950;DHT22;9608;49.288;8.130;2022-11-02T10:03:53;15.00;99.90
18950;DHT22;9608;49.288;8.130;2022-11-02T10:06:24;15.00;99.90
18950;DHT22;9608;49.288;8.130;2022-11-02T10:08:59;15.10;99.90
18950;DHT22;9608;49.288;8.130;2022-11-02T10:11:41;15.30;99.90
18950;DHT22;9608;49.288;8.130;2022-11-02T10:14:30;15.00;99.90
18950;DHT22;9608;49.288;8.130;2022-11-02T10:17:14;15.00;99.90
18950;DHT22;9608;49.288;8.130;2022-11-02T10:19:47;15.20;99.90
18950;DHT22;9608;49.288;8.130;2022-11-02T10:22:33;15.30;99.90
18950;DHT22;9608;49.288;8.130;2022-11-02T10:25:04;15.30;99.90
18950;DHT22;9608;49.288;8.130;2022-11-02T10:27:37;15.30;99.90
18950;DHT22;9608;49.288;8.130;2022-11-02T10:30:21;15.30;99.90
18950;DHT22;9608;49.288;8.130;2022-11-02T10:32:58;15.20;99.90
18950;DHT22;9608;49.288;8.130;2022-11-02T10:35:31;15.10;99.90
18950;DHT22;9608;49.288;8.130;2022-11-02T10:38:09;15.30;99.90
18950;DHT22;9608;49.288;8.130;2022-11-02T10:40:49;15.50;99.90
18950;DHT22;9608;49.288;8.130;2022-11-02T10:43:29;15.70;99.90
18950;DHT22;9608;49.288;8.130;2022-11-02T10:46:22;15.90;99.90
18950;DHT22;9608;49.288;8.130;2022-11-02T10:48:59;15.90;99.90
18950;DHT22;9608;49.288;8.130;2022-11-02T10:51:28;15.60;99.90
18950;DHT22;9608;49.288;8.130;2022-11-02T10:53:56;15.40;99.90
18950;DHT22;9608;49.288;8.130;2022-11-02T10:56:28;15.30;99.90
18950;DHT22;9608;49.288;8.130;2022-11-02T10:59:01;15.30;99.90
18950;DHT22;9608;49.288;8.130;2022-11-02T11:01:31;15.30;99.90
18950;DHT22;9608;49.288;8.130;2022-11-02T11:03:59;15.50;99.90
18950;DHT22;9608;49.288;8.130;2022-11-02T11:06:29;15.50;99.90
18950;DHT22;9608;49.288;8.130;2022-11-02T11:09:03;15.50;99.90
18950;DHT22;9608;49.288;8.130;2022-11-02T11:11:33;15.50;99.90
18950;DHT22;9608;49.288;8.130;2022-11-02T11:14:04;15.50;99.90
18950;DHT22;9608;49.288;8.130;2022-11-02T11:16:39;15.50;99.90
18950;DHT22;9608;49.288;8.130;2022-11-02T11:19:23;15.50;99.90
18950;DHT22;9608;49.288;8.130;2022-11-02T11:21:53;15.40;99.90
18950;DHT22;9608;49.288;8.130;2022-11-02T11:24:33;15.60;99.90
18950;DHT22;9608;49.288;8.130;2022-11-02T11:27:18;15.80;99.90
18950;DHT22;9608;49.288;8.130;2022-11-02T11:29:55;15.80;99.90
18950;DHT22;9608;49.288;8.130;2022-11-02T11:32:27;16.00;99.90
18950;DHT22;9608;49.288;8.130;2022-11-02T11:34:57;16.20;99.90
18950;DHT22;9608;49.288;8.130;2022-11-02T11:37:48;16.30;99.90
18950;DHT22;9608;49.288;8.130;2022-11-02T11:40:21;16.20;99.90
18950;DHT22;9608;49.288;8.130;2022-11-02T11:42:49;16.20;99.90
18950;DHT22;9608;49.288;8.130;2022-11-02T11:45:21;16.30;99.90
18950;DHT22;9608;49.288;8.130;2022-11-02T11:48:06;16.30;99.90
18950;DHT22;9608;49.288;8.130;2022-11-02T11:50:44;16.40;99.90
18950;DHT22;9608;49.288;8.130;2022-11-02T11:53:18;16.60;99.90
18950;DHT22;9608;49.288;8.130;2022-11-02T11:55:51;16.70;99.90
18950;DHT22;9608;49.288;8.130;2022-11-02T11:58:20;16.50;99.90
18950;DHT22;9608;49.288;8.130;2022-11-02T12:01:12;16.30;99.90
18950;DHT22;9608;49.288;8.130;2022-11-02T12:03:55;16.10;99.90
18950;DHT22;9608;49.288;8.130;2022-11-02T12:06:40;15.90;99.90
18950;DHT22;9608;49.288;8.130;2022-11-02T12:09:18;15.70;99.90
18950;DHT22;9608;49.288;8.130;2022-11-02T12:11:53;15.40;99.90
18950;DHT22;9608;49.288;8.130;2022-11-02T12:14:46;15.40;99.90
18950;DHT22;9608;49.288;8.130;2022-11-02T12:17:39;15.40;99.90
18950;DHT22;9608;49.288;8.130;2022-11-02T12:20:24;15.60;99.90
18950;DHT22;9608;49.288;8.130;2022-11-02T12:23:00;15.80;99.90
18950;DHT22;9608;49.288;8.130;2022-11-02T12:25:39;16.00;99.90
18950;DHT22;9608;49.288;8.130;2022-11-02T12:28:20;16.00;99.90
18950;DHT22;9608;49.288;8.130;2022-11-02T12:30:54;16.10;99.90
18950;DHT22;9608;49.288;8.130;2022-11-02T12:33:34;16.10;99.90
18950;DHT22;9608;49.288;8.130;2022-11-02T12:36:24;16.20;99.90
18950;DHT22;9608;49.288;8.130;2022-11-02T12:39:14;16.10;99.90
18950;DHT22;9608;49.288;8.130;2022-11-02T12:41:59;15.90;99.90
18950;DHT22;9608;49.288;8.130;2022-11-02T12:44:39;15.80;99.90
18950;DHT22;9608;49.288;8.130;2022-11-02T12:47:21;15.90;99.90
18950;DHT22;9608;49.288;8.130;2022-11-02T12:49:58;15.80;99.90
18950;DHT22;9608;49.288;8.130;2022-11-02T12:52:41;15.80;99.90
18950;DHT22;9608;49.288;8.130;2022-11-02T12:55:15;15.80;99.90
18950;DHT22;9608;49.288;8.130;2022-11-02T12:57:43;15.70;99.90
18950;DHT22;9608;49.288;8.130;2022-11-02T13:00:16;15.70;99.90
18950;DHT22;9608;49.288;8.130;2022-11-02T13:03:03;15.60;99.90
18950;DHT22;9608;49.288;8.130;2022-11-02T13:05:36;15.50;99.90
18950;DHT22;9608;49.288;8.130;2022-11-02T13:08:09;15.50;99.90
18950;DHT22;9608;49.288;8.130;2022-11-02T13:10:53;15.50;99.90
18950;DHT22;9608;49.288;8.130;2022-11-02T13:13:26;15.60;99.90
18950;DHT22;9608;49.288;8.130;2022-11-02T13:15:54;15.60;99.90
18950;DHT22;9608;49.288;8.130;2022-11-02T13:18:25;15.70;99.90
18950;DHT22;9608;49.288;8.130;2022-11-02T13:20:55;15.70;99.90
18950;DHT22;9608;49.288;8.130;2022-11-02T13:23:33;15.70;99.90
18950;DHT22;9608;49.288;8.130;2022-11-02T13:26:03;15.80;99.90
18950;DHT22;9608;49.288;8.130;2022-11-02T13:28:35;15.70;99.90
18950;DHT22;9608;49.288;8.130;2022-11-02T13:31:10;15.70;99.90
18950;DHT22;9608;49.288;8.130;2022-11-02T13:33:42;15.70;99.90
18950;DHT22;9608;49.288;8.130;2022-11-02T13:36:10;15.80;99.90
18950;DHT22;9608;49.288;8.130;2022-11-02T13:38:41;15.70;99.90
18950;DHT22;9608;49.288;8.130;2022-11-02T13:41:20;15.60;99.90
18950;DHT22;9608;49.288;8.130;2022-11-02T13:44:03;15.50;99.90
18950;DHT22;9608;49.288;8.130;2022-11-02T13:46:48;15.40;99.90
18950;DHT22;9608;49.288;8.130;2022-11-02T13:49:22;15.40;99.90
18950;DHT22;9608;49.288;8.130;2022-11-02T13:51:51;15.40;99.90
18950;DHT22;9608;49.288;8.130;2022-11-02T13:54:26;15.40;99.90
18950;DHT22;9608;49.288;8.130;2022-11-02T13:56:55;15.40;99.90
18950;DHT22;9608;49.288;8.130;2022-11-02T13:59:27;15.40;99.90
18950;DHT22;9608;49.288;8.130;2022-11-02T14:01:55;15.30;99.90
18950;DHT22;9608;49.288;8.130;2022-11-02T14:04:23;15.30;99.90
18950;DHT22;9608;49.288;8.130;2022-11-02T14:06:54;15.30;99.90
18950;DHT22;9608;49.288;8.130;2022-11-02T14:09:27;15.20;99.90
18950;DHT22;9608;49.288;8.130;2022-11-02T14:18:14;15.30;99.90
18950;DHT22;9608;49.288;8.130;2022-11-02T14:20:50;15.20;99.90
18950;DHT22;9608;49.288;8.130;2022-11-02T14:23:38;15.30;99.90
18950;DHT22;9608;49.288;8.130;2022-11-02T14:26:31;15.30;99.90
18950;DHT22;9608;49.288;8.130;2022-11-02T14:28:58;15.30;99.90
18950;DHT22;9608;49.288;8.130;2022-11-02T14:31:42;15.20;99.90
18950;DHT22;9608;49.288;8.130;2022-11-02T14:37:40;15.20;99.90
18950;DHT22;9608;49.288;8.130;2022-11-02T14:40:23;15.20;99.90
18950;DHT22;9608;49.288;8.130;2022-11-02T14:45:59;15.30;99.90
18950;DHT22;9608;49.288;8.130;2022-11-02T14:48:30;15.20;99.90
18950;DHT22;9608;49.288;8.130;2022-11-02T14:51:00;15.10;99.90
18950;DHT22;9608;49.288;8.130;2022-11-02T14:53:31;15.10;99.90
18950;DHT22;9608;49.288;8.130;2022-11-02T14:55:58;15.10;99.90
18950;DHT22;9608;49.288;8.130;2022-11-02T14:58:31;15.10;99.90
18950;DHT22;9608;49.288;8.130;2022-11-02T15:01:00;15.00;99.90
18950;DHT22;9608;49.288;8.130;2022-11-02T15:03:31;15.00;99.90
18950;DHT22;9608;49.288;8.130;2022-11-02T15:06:01;14.90;99.90
18950;DHT22;9608;49.288;8.130;2022-11-02T15:08:31;14.80;99.90
18950;DHT22;9608;49.288;8.130;2022-11-02T15:10:58;14.80;99.90
18950;DHT22;9608;49.288;8.130;2022-11-02T15:13:47;14.80;99.90
18950;DHT22;9608;49.288;8.130;2022-11-02T15:16:21;14.70;99.90
18950;DHT22;9608;49.288;8.130;2022-11-02T15:18:48;14.70;99.90
18950;DHT22;9608;49.288;8.130;2022-11-02T15:21:23;14.70;99.90
18950;DHT22;9608;49.288;8.130;2022-11-02T15:24:10;14.60;99.90
18950;DHT22;9608;49.288;8.130;2022-11-02T15:26:43;14.60;99.90
18950;DHT22;9608;49.288;8.130;2022-11-02T15:29:30;14.50;99.90
18950;DHT22;9608;49.288;8.130;2022-11-02T15:31:58;14.50;99.90
18950;DHT22;9608;49.288;8.130;2022-11-02T15:34:32;14.50;99.90
18950;DHT22;9608;49.288;8.130;2022-11-02T15:37:01;14.40;99.90
18950;DHT22;9608;49.288;8.130;2022-11-02T15:39:29;14.40;99.90
18950;DHT22;9608;49.288;8.130;2022-11-02T15:42:01;14.40;99.90
18950;DHT22;9608;49.288;8.130;2022-11-02T15:47:41;14.10;99.90
18950;DHT22;9608;49.288;8.130;2022-11-02T15:50:23;13.90;99.90
18950;DHT22;9608;49.288;8.130;2022-11-02T15:53:12;13.70;99.90
18950;DHT22;9608;49.288;8.130;2022-11-02T15:55:51;13.40;99.90
18950;DHT22;9608;49.288;8.130;2022-11-02T15:58:26;13.20;99.90
18950;DHT22;9608;49.288;8.130;2022-11-02T16:01:14;12.90;99.90
18950;DHT22;9608;49.288;8.130;2022-11-02T16:03:44;12.70;99.90
18950;DHT22;9608;49.288;8.130;2022-11-02T16:06:12;12.50;99.90
18950;DHT22;9608;49.288;8.130;2022-11-02T16:08:39;12.30;99.90
18950;DHT22;9608;49.288;8.130;2022-11-02T16:11:11;12.20;99.90
18950;DHT22;9608;49.288;8.130;2022-11-02T16:13:41;12.00;99.90
18950;DHT22;9608;49.288;8.130;2022-11-02T16:16:12;11.80;99.90
18950;DHT22;9608;49.288;8.130;2022-11-02T16:18:39;11.60;99.90
18950;DHT22;9608;49.288;8.130;2022-11-02T16:21:11;11.50;99.90
18950;DHT22;9608;49.288;8.130;2022-11-02T16:23:40;11.40;99.90
18950;DHT22;9608;49.288;8.130;2022-11-02T16:26:13;11.20;99.90
18950;DHT22;9608;49.288;8.130;2022-11-02T16:28:47;11.10;99.90
18950;DHT22;9608;49.288;8.130;2022-11-02T16:31:16;10.80;99.90
18950;DHT22;9608;49.288;8.130;2022-11-02T16:33:46;10.60;99.90
18950;DHT22;9608;49.288;8.130;2022-11-02T16:36:16;10.50;99.90
18950;DHT22;9608;49.288;8.130;2022-11-02T16:38:50;10.60;99.90